KBDL/BDL METAR and TAF weather

Enter ICAO airport designator
Station Type Date Time Source
KBDL METAR 2020/07/11 16:51 UTC NOAA

KBDL 111651Z 18013KT 10SM SCT025 SCT030 BKN150 BKN180 30/22 A2971 RMK AO2 SLP058 T03000222 $


Station Type Date Time Source
KBDL Decoded METAR 2020/07/11 16:51 UTC NOAA

BRADLEY INTERNATIONAL AIRPORT , CT, United States (KBDL) 41-56N 072-41W 60M
Jul 11, 2020 - 12:51 PM EDT / 2020.07.11 1651 UTC
Wind: from the S (180 degrees) at 15 MPH (13 KT):0
Visibility: 10 mile(s):0
Sky conditions: mostly cloudy
Temperature: 86.0 F (30.0 C)
Heat index: 92.1 F (33.4 C):1
Dew Point: 72.0 F (22.2 C)
Relative Humidity: 63%
Pressure (altimeter): 29.71 in. Hg (1006 hPa)
ob: KBDL 111651Z 18013KT 10SM SCT025 SCT030 BKN150 BKN180 30/22 A2971 RMK AO2 SLP058 T03000222
cycle: 17

Station Type Date Time Source
KBDL TAF 2020/07/11 15:45 UTC NOAA

TAF
AMD KBDL 111443Z 1115/1218 19012G21KT P6SM SCT250
FM112000 18012G25KT P6SM VCTS SCT050CB
FM120000 18010G18KT P6SM BKN050
FM120200 19009KT P6SM BKN015
FM120900 22007KT P6SM BKN020
FM121200 23006KT P6SM FEW050

Example: see airport list